Flight Track Log - Related Links

Times and Time Zones

All times are in EDT time to prevent confusion due to time zone crossing. See the ASQ5958 flight status page for this flight to view local times or setup timezone preferences in your user account.

Time Position Orientation Groundspeed Altitude Reporting Facility
EDT Latitude Longitude Course Direction KTS MPH feet Rate Location/Type
Thu 11:03:49 PM 40.4889 -80.1892 89° East 176 203 2,500  Level FAA TRACON SMA TRACON (SMA)
Thu 11:04:09 PM 40.4892 -80.1683 89° East 182 209 3,000 1,200 Climbing FAA TRACON SMA TRACON (SMA)
Thu 11:04:29 PM 40.4953 -80.1467 70° East 227 261 3,300 1,385 Climbing FAA TRACON SMA TRACON (SMA)
Thu 11:04:48 PM 40.5131 -80.1175 51° Northeast 266 306 3,900 1,800 Climbing FAA TRACON SMA TRACON (SMA)
Thu 11:05:09 PM 40.5361 -80.1089 16° North 282 325 4,500 1,463 Climbing FAA TRACON SMA TRACON (SMA)
Thu 11:05:29 PM 40.5586 -80.1125 353° North 299 344 4,900 2,195 Climbing FAA TRACON SMA TRACON (SMA)
Thu 11:05:50 PM 40.5803 -80.1422 314° West 278 320 6,000 2,700 Climbing FAA TRACON SMA TRACON (SMA)
Thu 11:06:09 PM 40.5900 -80.1681 296° West 248 285 6,700 2,308 Climbing FAA TRACON SMA TRACON (SMA)
Thu 11:06:29 PM 40.5939 -80.2017 279° West 252 290 7,500 2,400 Climbing FAA TRACON SMA TRACON (SMA)
Thu 11:06:49 PM 40.5981 -80.2311 281° West 257 296 8,300 2,250 Climbing FAA TRACON SMA TRACON (SMA)
Thu 11:07:09 PM 40.6017 -80.2594 280° West 256 295 9,000 2,250 Climbing FAA TRACON SMA TRACON (SMA)
Thu 11:07:29 PM 40.6058 -80.2950 279° West 258 297 9,800 2,250 Climbing FAA TRACON SMA TRACON (SMA)
Thu 11:07:49 PM 40.6147 -80.3219 293° West 257 296 10,500 1,500 Climbing FAA TRACON SMA TRACON (SMA)
Thu 11:08:09 PM 40.6239 -80.3497 294° West 277 319 10,800 1,050 Climbing FAA TRACON SMA TRACON (SMA)
Thu 11:08:29 PM 40.6372 -80.3861 296° West 291 335 11,200 1,200 Climbing FAA TRACON SMA TRACON (SMA)
Thu 11:08:49 PM 40.6486 -80.4161 297° West 296 341 11,600 1,200 Climbing FAA TRACON SMA TRACON (SMA)
Thu 11:09:09 PM 40.6600 -80.4475 296° West 308 354 12,000 1,350 Climbing FAA TRACON SMA TRACON (SMA)
Thu 11:09:29 PM 40.6756 -80.4872 297° West 318 366 12,500 1,500 Climbing FAA TRACON SMA TRACON (SMA)
Thu 11:09:49 PM 40.6883 -80.5197 297° West 320 368 13,000 1,500 Climbing FAA TRACON SMA TRACON (SMA)
Thu 11:10:09 PM 40.7008 -80.5525 297° West 323 372 13,500 1,800 Climbing FAA TRACON SMA TRACON (SMA)
Thu 11:10:29 PM 40.7167 -80.5925 298° West 322 371 14,200 1,800 Climbing FAA TRACON SMA TRACON (SMA)
Thu 11:10:49 PM 40.7294 -80.6247 298° West 323 372 14,700 1,350 Climbing FAA TRACON SMA TRACON (SMA)
Thu 11:11:09 PM 40.7400 -80.6586 292° West 321 369 15,100 1,350 Climbing FAA TRACON SMA TRACON (SMA)
Thu 11:11:29 PM 40.7558 -80.7003 297° West 333 383 15,600 1,650 Climbing FAA TRACON SMA TRACON (SMA)
Thu 11:11:49 PM 40.7703 -80.7331 300° West 335 386 16,200 1,500 Climbing FAA TRACON SMA TRACON (SMA)
Thu 11:12:09 PM 40.7828 -80.7661 297° West 328 377 16,600 1,500 Climbing FAA TRACON SMA TRACON (SMA)
Thu 11:12:29 PM 40.7900 -80.8106 282° West 314 361 17,200 1,500 Climbing FAA TRACON SMA TRACON (SMA)
Thu 11:12:49 PM 40.7958 -80.8406 284° West 316 364 17,600 1,500 Climbing FAA TRACON SMA TRACON (SMA)
Thu 11:13:09 PM 40.7983 -80.8814 275° West 314 361 18,200 1,950 Climbing FAA TRACON SMA TRACON (SMA)
Thu 11:13:29 PM 40.8031 -80.9258 278° West 317 365 18,900 1,800 Climbing FAA TRACON SMA TRACON (SMA)
Thu 11:13:49 PM 40.8097 -80.9550 287° West 315 362 19,400 1,350 Climbing FAA TRACON SMA TRACON (SMA)
Thu 11:14:09 PM 40.8108 -80.9956 272° West 314 361 19,800 1,500 Climbing FAA TRACON SMA TRACON (SMA)
Thu 11:14:29 PM 40.8156 -81.0397 278° West 316 364 20,400 1,500 Climbing FAA TRACON SMA TRACON (SMA)
Thu 11:14:49 PM 40.8194 -81.0756 278° West 318 366 20,800 1,350 Climbing FAA TRACON SMA TRACON (SMA)
Thu 11:15:09 PM 40.8233 -81.1117 278° West 321 369 21,300 1,463 Climbing FAA TRACON SMA TRACON (SMA)
Thu 11:15:30 PM 40.8278 -81.1575 277° West 324 373 21,800 1,500 Climbing FAA TRACON SMA TRACON (SMA)
Thu 11:15:49 PM 40.8317 -81.1942 278° West 326 375 22,300 1,231 Climbing FAA TRACON SMA TRACON (SMA)
Thu 11:16:09 PM 40.8400 -81.2269 289° West 328 377 22,600 1,200 Climbing FAA TRACON SMA TRACON (SMA)
Thu 11:16:29 PM 40.8403 -81.2781 270° West 333 383 23,100 1,350 Climbing FAA TRACON SMA TRACON (SMA)
Thu 11:16:49 PM 40.8450 -81.3153 280° West 334 384 23,500 1,050 Climbing FAA TRACON SMA TRACON (SMA)
Thu 11:17:09 PM 40.8483 -81.3533 277° West 339 390 23,800 600 Climbing FAA TRACON SMA TRACON (SMA)
Thu 11:17:29 PM 40.8531 -81.3533 360° North 339 390 23,900 150 Climbing FAA TRACON SMA TRACON (SMA)
Thu 11:17:49 PM 40.8531 -81.3533 210° Southwest 339 390 23,900 1,391 Level FAA TRACON SMA TRACON (SMA)
Thu 11:18:38 PM 40.8719 -81.5386 278° West 335 386 25,500 1,541 Climbing Cleveland Center
Thu 11:19:38 PM 40.8833 -81.6625 277° West 340 391 26,700 1,100 Climbing Cleveland Center
Thu 11:20:38 PM 40.8947 -81.7753 278° West 348 400 27,700 650 Climbing Cleveland Center
Thu 11:21:38 PM 40.9058 -81.9044 277° West 353 406 28,000 150 Climbing Cleveland Center
Thu 11:22:38 PM 40.9208 -82.0450 278° West 375 432 28,000  Level Cleveland Center
Thu 11:23:38 PM 40.9356 -82.1911 278° West 395 455 28,000  Level Cleveland Center
Thu 11:24:38 PM 40.9500 -82.3453 277° West 416 479 28,000  Level Cleveland Center
Thu 11:25:38 PM 40.9639 -82.5108 276° West 416 479 28,000  Level Cleveland Center
Thu 11:26:38 PM 40.9781 -82.6569 277° West 416 479 28,000  Level Cleveland Center
Thu 11:27:38 PM 40.9919 -82.8031 277° West 409 471 28,000  Level Cleveland Center
Thu 11:28:38 PM 41.0036 -82.9494 276° West 404 465 28,000  Level Cleveland Center
Thu 11:29:38 PM 41.0150 -83.0983 276° West 409 471 28,000  Level Cleveland Center
Thu 11:30:38 PM 41.0308 -83.2283 279° West 409 471 28,000  Level Cleveland Center
Thu 11:31:38 PM 41.0439 -83.3831 276° West 409 471 28,000  Level Cleveland Center
Thu 11:32:38 PM 41.0567 -83.5297 277° West 409 471 28,000  Level Cleveland Center
Thu 11:33:38 PM 41.0697 -83.6761 277° West 409 471 28,000  Level Cleveland Center
Thu 11:34:38 PM 41.0819 -83.8339 276° West 409 471 28,000  Level Cleveland Center
Thu 11:36:26 PM 41.0997 -84.0833 275° West 388 447 28,000  Level Chicago Center
Thu 11:37:27 PM 41.1111 -84.2239 276° West 384 442 28,000  Level Chicago Center
Thu 11:38:28 PM 41.1214 -84.3647 276° West 383 441 28,000  Level Chicago Center
Thu 11:39:29 PM 41.1308 -84.5050 275° West 383 441 28,000  Level Chicago Center
Thu 11:40:30 PM 41.1414 -84.6456 276° West 383 441 28,000  Level Chicago Center
Thu 11:41:32 PM 41.1508 -84.7858 275° West 382 440 28,000  Level Chicago Center
Thu 11:42:33 PM 41.1611 -84.9250 276° West 380 437 28,000  Level Chicago Center
Thu 11:43:34 PM 41.1703 -85.0661 275° West 383 441 28,000  Level Chicago Center
Thu 11:44:35 PM 41.1800 -85.2050 275° West 380 437 28,000  Level Chicago Center
Thu 11:45:36 PM 41.1886 -85.3439 275° West 377 434 28,000  Level Chicago Center
Thu 11:46:38 PM 41.1969 -85.4861 274° West 382 440 28,000  Level Chicago Center
Thu 11:47:39 PM 41.2064 -85.6256 275° West 378 435 28,000  Level Chicago Center
Thu 11:48:40 PM 41.2181 -85.7947 275° West 382 440 28,000  Level Chicago Center
Thu 11:49:41 PM 41.2253 -85.9347 274° West 381 438 28,000  Level Chicago Center
Thu 11:50:42 PM 41.2342 -86.0731 275° West 377 434 28,000  Level Chicago Center
Thu 11:51:43 PM 41.2425 -86.2150 275° West 384 442 28,000  Level Chicago Center
Thu 11:52:44 PM 41.2508 -86.3567 275° West 386 444 28,000  Level Chicago Center
Thu 11:53:45 PM 41.2592 -86.4986 275° West 387 445 28,000  Level Chicago Center
Thu 11:54:46 PM 41.2661 -86.6425 274° West 390 449 28,000  Level Chicago Center
Thu 11:55:47 PM 41.2744 -86.7894 274° West 391 450 28,000  Level Chicago Center
Thu 11:56:48 PM 41.2817 -86.9314 274° West 389 448 28,000  Level Chicago Center
Thu 11:57:50 PM 41.2900 -87.0714 275° West 383 441 28,000  Level Chicago Center
Thu 11:58:50 PM 41.2972 -87.2125 274° West 385 443 28,000  Level Chicago Center
Thu 11:59:51 PM 41.3036 -87.3514 274° West 381 438 28,000  Level Chicago Center
Fri 12:00:53 AM 41.3125 -87.5192 274° West 379 436 28,000  Level Chicago Center
Fri 12:01:54 AM 41.3186 -87.6592 273° West 381 438 28,000  Level Chicago Center
Fri 12:02:55 AM 41.3250 -87.7997 274° West 381 438 28,000  Level Chicago Center
Fri 12:03:56 AM 41.3314 -87.9403 274° West 379 436 28,000  Level Chicago Center
Fri 12:04:57 AM 41.3369 -88.0839 273° West 381 438 28,000  Level Chicago Center
Fri 12:05:58 AM 41.3431 -88.2267 273° West 380 437 28,000 197 Level Chicago Center
Fri 12:06:59 AM 41.3486 -88.3658 273° West 376 433 28,400 639 Climbing Chicago Center
Fri 12:08:00 AM 41.3539 -88.5006 273° West 368 423 29,300 836 Climbing Chicago Center
Fri 12:09:01 AM 41.3589 -88.6314 273° West 357 411 30,100 787 Climbing Chicago Center
Fri 12:10:02 AM 41.3633 -88.7606 273° West 353 406 30,900 787 Climbing Chicago Center
Fri 12:11:03 AM 41.3681 -88.8878 273° West 347 399 31,700 836 Climbing Chicago Center
Fri 12:12:04 AM 41.3728 -89.0150 273° West 347 399 32,600 836 Climbing Chicago Center
Fri 12:13:05 AM 41.3761 -89.1400 272° West 341 392 33,400 689 Climbing Chicago Center
Fri 12:14:06 AM 41.3814 -89.2864 273° West 343 395 34,000 295 Climbing Chicago Center
Fri 12:15:07 AM 41.3858 -89.4186 273° West 354 407 34,000  Level Chicago Center
Fri 12:16:08 AM 41.3994 -89.5622 277° West 384 442 34,000  Level Chicago Center
Fri 12:17:08 AM 41.4150 -89.7078 278° West 397 457 34,000  Level Chicago Center
Fri 12:18:09 AM 41.4283 -89.8542 277° West 400 460 34,000  Level Chicago Center
Fri 12:19:10 AM 41.4411 -89.9956 277° West 392 451 34,000  Level Chicago Center
Fri 12:20:11 AM 41.4553 -90.1308 278° West 378 435 34,000 98 Level Chicago Center
Fri 12:21:12 AM 41.4669 -90.2636 277° West 368 423 34,200 393 Climbing Chicago Center
Fri 12:22:13 AM 41.4783 -90.3969 277° West 365 420 34,800 590 Climbing Chicago Center
Fri 12:23:14 AM 41.4906 -90.5317 277° West 366 421 35,400 590 Climbing Chicago Center
Fri 12:24:15 AM 41.5017 -90.6722 276° West 380 437 36,000 295 Climbing Chicago Center
Fri 12:25:16 AM 41.5119 -90.8094 276° West 377 434 36,000  Level Chicago Center
Fri 12:26:17 AM 41.5244 -90.9531 277° West 382 440 36,000  Level Chicago Center
Fri 12:27:18 AM 41.5392 -91.1236 277° West 386 444 36,000  Level Chicago Center
Fri 12:28:18 AM 41.5506 -91.2658 276° West 386 444 36,000  Level Chicago Center
Fri 12:29:19 AM 41.5617 -91.4089 276° West 389 448 36,000  Level Chicago Center
Fri 12:30:20 AM 41.5733 -91.5500 276° West 386 444 36,000  Level Chicago Center
Fri 12:31:21 AM 41.5850 -91.6928 276° West 387 445 36,000  Level Chicago Center
Fri 12:32:22 AM 41.5961 -91.8328 276° West 384 442 36,000  Level Chicago Center
Fri 12:33:23 AM 41.6061 -91.9750 275° West 384 442 36,000  Level Chicago Center
Fri 12:34:23 AM 41.6172 -92.1203 276° West 388 447 36,000  Level Chicago Center
Fri 12:35:24 AM 41.6264 -92.2617 275° West 386 444 36,000  Level Chicago Center
Fri 12:36:25 AM 41.6361 -92.4047 275° West 386 444 36,000  Level Chicago Center
Fri 12:37:26 AM 41.6461 -92.5478 275° West 388 447 36,000  Level Chicago Center
Fri 12:38:00 AM 41.6525 -92.6336 276° West 390 449 36,000  Level Minneapolis Center
Fri 12:39:00 AM 41.6614 -92.7753 275° West 388 447 36,000  Level Minneapolis Center
Fri 12:40:01 AM 41.6714 -92.9167 275° West 387 445 36,000  Level Minneapolis Center
Fri 12:41:02 AM 41.6814 -93.0886 275° West 389 448 36,000  Level Minneapolis Center
Fri 12:42:03 AM 41.6914 -93.2286 276° West 386 444 36,000  Level Minneapolis Center
Fri 12:43:04 AM 41.7006 -93.3708 275° West 387 445 36,000  Level Minneapolis Center
Fri 12:44:04 AM 41.7086 -93.5119 274° West 385 443 36,000  Level Minneapolis Center
Fri 12:45:05 AM 41.6944 -93.6481 262° West 373 429 36,000  Level Minneapolis Center
Fri 12:46:06 AM 41.6778 -93.7853 261° West 375 432 36,000  Level Minneapolis Center
Fri 12:47:07 AM 41.6633 -93.9217 262° West 374 430 36,000  Level Minneapolis Center
Fri 12:48:07 AM 41.6464 -94.0597 261° West 378 435 36,000  Level Minneapolis Center
Fri 12:49:08 AM 41.6306 -94.1994 261° West 381 438 36,000  Level Minneapolis Center
Fri 12:50:09 AM 41.6106 -94.3611 261° West 385 443 36,000  Level Minneapolis Center
Fri 12:51:09 AM 41.5931 -94.5019 261° West 384 442 36,000  Level Minneapolis Center
Fri 12:52:10 AM 41.5756 -94.6447 261° West 387 445 36,000  Level Minneapolis Center
Fri 12:53:11 AM 41.5581 -94.7861 261° West 386 444 36,000  Level Minneapolis Center
Fri 12:54:12 AM 41.5406 -94.9281 261° West 387 445 36,000  Level Minneapolis Center
Fri 12:55:12 AM 41.5228 -95.0692 260° West 386 444 36,000  Level Minneapolis Center
Fri 12:56:13 AM 41.5044 -95.2111 260° West 389 448 36,000  Level Minneapolis Center
Fri 12:57:14 AM 41.4853 -95.3539 260° West 390 449 36,000  Level Minneapolis Center
Fri 12:58:14 AM 41.4664 -95.4958 260° West 390 449 36,000  Level Minneapolis Center
Fri 12:59:15 AM 41.4458 -95.6542 260° West 391 450 36,000  Level Minneapolis Center
Fri 01:00:16 AM 41.4281 -95.7975 261° West 392 451 36,000  Level Minneapolis Center
Fri 01:01:16 AM 41.4072 -95.9408 259° West 392 451 36,000  Level Minneapolis Center
Fri 01:02:17 AM 41.3886 -96.0858 260° West 395 455 36,000  Level Minneapolis Center
Fri 01:03:18 AM 41.3678 -96.2292 259° West 395 455 36,000  Level Minneapolis Center
Fri 01:04:18 AM 41.3483 -96.3733 260° West 396 456 36,000  Level Minneapolis Center
Fri 01:05:19 AM 41.3283 -96.5169 260° West 396 456 36,000  Level Minneapolis Center
Fri 01:06:20 AM 41.3072 -96.6619 259° West 398 458 36,000  Level Minneapolis Center
Fri 01:07:20 AM 41.2861 -96.8064 259° West 398 458 36,000  Level Minneapolis Center
Fri 01:08:21 AM 41.2656 -96.9519 259° West 400 460 36,000  Level Minneapolis Center
Fri 01:09:22 AM 41.2436 -97.0975 259° West 401 461 36,000  Level Minneapolis Center
Fri 01:11:00 AM 41.2076 -97.3214 258° West  Level FlightAware Approximate
Fri 01:11:52 AM 41.1864 -97.4839 258° West 408 470 36,000  Level Denver Center
Fri 01:12:24 AM 41.1772 -97.5428 258° West 408 470 36,000  Level Minneapolis Center
Fri 01:13:24 AM 41.1544 -97.6911 259° West 410 472 36,000  Level Minneapolis Center
Fri 01:14:25 AM 41.1319 -97.8403 259° West 412 474 36,000  Level Minneapolis Center
Fri 01:15:25 AM 41.1089 -97.9894 258° West 412 474 36,000  Level Minneapolis Center
Fri 01:16:26 AM 41.0864 -98.1389 259° West 413 475 36,000  Level Minneapolis Center
Fri 01:17:27 AM 41.0631 -98.2889 258° West 414 476 36,000  Level Minneapolis Center
Fri 01:18:27 AM 41.0361 -98.4611 258° West 412 474 36,000  Level Minneapolis Center
Fri 01:19:28 AM 41.0122 -98.6111 258° West 414 476 36,000  Level Minneapolis Center
Fri 01:20:28 AM 40.9892 -98.7611 259° West 415 478 36,000  Level Minneapolis Center
Fri 01:21:29 AM 40.9644 -98.9100 258° West 415 478 36,000  Level Minneapolis Center
Fri 01:22:30 AM 40.9392 -99.0589 257° West 415 478 36,000  Level Minneapolis Center
Fri 01:23:00 AM 40.9267 -99.1372 258° West 416 479 36,000  Level Denver Center
Fri 01:24:00 AM 40.9017 -99.2872 258° West 416 479 36,000  Level Denver Center
Fri 01:25:01 AM 40.8764 -99.4367 257° West 416 479 36,000  Level Denver Center
Fri 01:26:02 AM 40.8514 -99.5858 258° West 416 479 36,000  Level Denver Center
Fri 01:27:02 AM 40.8253 -99.7367 257° West 419 482 36,000  Level Denver Center
Fri 01:28:15 AM 40.8000 -99.8764 257° West 416 479 36,000  Level Denver Center
Fri 01:29:16 AM 40.7678 -100.0697 258° West 422 486 36,000  Level Denver Center
Fri 01:30:17 AM 40.7419 -100.2144 257° West 421 484 36,000  Level Denver Center
Fri 01:31:17 AM 40.7164 -100.3597 257° West 423 487 36,000  Level Denver Center
Fri 01:32:18 AM 40.6864 -100.5300 257° West 424 488 36,000  Level Denver Center
Fri 01:33:18 AM 40.6597 -100.6778 257° West 427 491 36,000  Level Denver Center
Fri 01:34:19 AM 40.6322 -100.8261 256° West 428 493 36,000  Level Denver Center
Fri 01:35:20 AM 40.6061 -100.9736 257° West 429 494 36,000  Level Denver Center
Fri 01:36:20 AM 40.5747 -101.1450 256° West 429 494 36,000  Level Denver Center
Fri 01:37:21 AM 40.5472 -101.2914 256° West 429 494 36,000  Level Denver Center
Fri 01:38:22 AM 40.5208 -101.4372 257° West 429 494 36,000  Level Denver Center
Fri 01:39:22 AM 40.4894 -101.6078 256° West 429 494 36,000  Level Denver Center
Fri 01:40:23 AM 40.4617 -101.7492 256° West 421 484 36,000  Level Denver Center
Fri 01:41:24 AM 40.4350 -101.8917 256° West 420 483 36,000  Level Denver Center
Fri 01:42:24 AM 40.4017 -102.0542 255° West 415 478 36,000  Level Denver Center
Fri 01:43:25 AM 40.3750 -102.1950 256° West 414 476 36,000  Level Denver Center
Fri 01:44:25 AM 40.3486 -102.3347 256° West 414 476 36,000 -496 Level Denver Center
Fri 01:45:26 AM 40.3144 -102.4989 255° West 419 482 35,000 -1,033 Descending Denver Center
Fri 01:46:27 AM 40.2861 -102.6433 256° West 427 491 33,900 -1,140 Descending Denver Center
Fri 01:47:27 AM 40.2567 -102.7931 256° West 419 482 32,700 -1,190 Descending Denver Center
Fri 01:48:28 AM 40.2281 -102.9392 256° West 413 475 31,500 -1,131 Descending Denver Center
Fri 01:49:29 AM 40.1975 -103.0822 254° West 406 467 30,400 -1,289 Descending Denver Center
Fri 01:50:29 AM 40.1683 -103.2244 255° West 402 463 28,900 -1,686 Descending Denver Center
Fri 01:51:30 AM 40.1389 -103.3733 256° West 418 481 27,000 -1,934 Descending Denver Center
Fri 01:52:30 AM 40.1061 -103.5233 254° West 425 489 25,000 -1,934 Descending Denver Center
Fri 01:53:31 AM 40.0756 -103.6750 255° West 429 494 23,100 -1,967 Descending Denver Center
Fri 01:54:32 AM 40.0439 -103.8244 255° West 435 501 21,000 -2,083 Descending Denver Center
Fri 01:55:32 AM 40.0147 -103.9603 254° West 400 460 18,900 -2,033 Descending Denver Center
Fri 01:56:33 AM 40.0006 -104.0908 262° West 364 419 16,900 -2,083 Descending Denver Center
Fri 01:57:33 AM 39.9892 -104.2183 263° West 332 382 14,700 -1,884 Descending Denver Center
Fri 01:58:34 AM 39.9847 -104.3294 267° West 299 344 13,100 -1,010 Descending Denver Center
Fri 01:59:14 AM 39.9833 -104.4000 269° West 272 313 13,000 -696 Descending Denver TRACON
Fri 02:00:26 AM 39.9833 -104.5000 270° West 218 251 11,800 -1,000 Descending Denver TRACON
Fri 02:01:20 AM 39.9833 -104.5667 270° West 189 217 10,900 -1,526 Descending Denver TRACON
Fri 02:02:20 AM 39.9833 -104.6333 270° West 186 214 8,900 -1,974 Descending Denver TRACON
Fri 02:02:36 AM 39.9864 -104.6431 292° West 188 216 8,400 -1,636 Descending Denver Center
Fri 02:03:37 AM 39.9494 -104.6864 222° Southwest 189 217 6,800 -1,339 Descending Denver Center
Fri 02:04:37 AM 39.9056 -104.6864 180° South 159 183 5,700 -1,100 Descending Denver Center
Fri 02:06:00 AM 39.8617 -104.6732 191° South  Level Estimated
Fri 02:13:00 AM 39.8617 -104.6732 191° South  Level Estimated
Fri 02:14:00 AM 39.8617 -104.6732 191° South  Level Estimated
Fri 02:15:00 AM 39.8617 -104.6732 191° South  Level Estimated

Login

Don't have an account? Register now (free) for customized features, flight alerts, and more!